sensor_id;sensor_type;location;lat;lon;timestamp;P1;durP1;ratioP1;P2;durP2;ratioP2
34200;SDS011;20469;55.638;37.670;2023-05-16T00:02:01;19.73;;;6.80;;
34200;SDS011;20469;55.638;37.670;2023-05-16T00:04:29;16.30;;;6.75;;
34200;SDS011;20469;55.638;37.670;2023-05-16T00:06:58;17.33;;;6.90;;
34200;SDS011;20469;55.638;37.670;2023-05-16T00:09:25;17.90;;;6.47;;
34200;SDS011;20469;55.638;37.670;2023-05-16T00:11:53;19.33;;;7.03;;
34200;SDS011;20469;55.638;37.670;2023-05-16T00:14:20;18.88;;;7.18;;
34200;SDS011;20469;55.638;37.670;2023-05-16T00:16:47;19.63;;;7.05;;
34200;SDS011;20469;55.638;37.670;2023-05-16T00:19:14;21.33;;;6.80;;
34200;SDS011;20469;55.638;37.670;2023-05-16T00:21:41;19.15;;;6.75;;
34200;SDS011;20469;55.638;37.670;2023-05-16T00:24:10;16.65;;;6.75;;
34200;SDS011;20469;55.638;37.670;2023-05-16T00:26:37;18.70;;;7.53;;
34200;SDS011;20469;55.638;37.670;2023-05-16T00:29:04;24.05;;;7.35;;
34200;SDS011;20469;55.638;37.670;2023-05-16T00:31:32;24.02;;;8.35;;
34200;SDS011;20469;55.638;37.670;2023-05-16T00:34:00;23.48;;;7.63;;
34200;SDS011;20469;55.638;37.670;2023-05-16T00:36:27;20.08;;;7.30;;
34200;SDS011;20469;55.638;37.670;2023-05-16T00:38:54;22.42;;;7.25;;
34200;SDS011;20469;55.638;37.670;2023-05-16T00:41:21;22.75;;;6.88;;
34200;SDS011;20469;55.638;37.670;2023-05-16T00:43:49;19.45;;;6.78;;
34200;SDS011;20469;55.638;37.670;2023-05-16T00:46:16;22.45;;;7.15;;
34200;SDS011;20469;55.638;37.670;2023-05-16T00:48:43;18.13;;;6.97;;
34200;SDS011;20469;55.638;37.670;2023-05-16T00:51:11;23.77;;;7.13;;
34200;SDS011;20469;55.638;37.670;2023-05-16T00:53:38;19.38;;;6.88;;
34200;SDS011;20469;55.638;37.670;2023-05-16T00:56:05;23.00;;;6.95;;
34200;SDS011;20469;55.638;37.670;2023-05-16T00:58:32;16.13;;;7.30;;
34200;SDS011;20469;55.638;37.670;2023-05-16T01:01:00;19.20;;;7.82;;
34200;SDS011;20469;55.638;37.670;2023-05-16T01:03:29;21.75;;;7.15;;
34200;SDS011;20469;55.638;37.670;2023-05-16T01:05:57;30.20;;;7.35;;
34200;SDS011;20469;55.638;37.670;2023-05-16T01:08:25;20.00;;;6.93;;
34200;SDS011;20469;55.638;37.670;2023-05-16T01:10:57;28.05;;;8.55;;
34200;SDS011;20469;55.638;37.670;2023-05-16T01:13:30;26.65;;;9.55;;
34200;SDS011;20469;55.638;37.670;2023-05-16T01:18:40;21.67;;;9.60;;
34200;SDS011;20469;55.638;37.670;2023-05-16T01:21:27;23.17;;;9.43;;
34200;SDS011;20469;55.638;37.670;2023-05-16T01:24:31;19.45;;;9.13;;
34200;SDS011;20469;55.638;37.670;2023-05-16T01:27:00;22.45;;;9.65;;
34200;SDS011;20469;55.638;37.670;2023-05-16T01:29:30;22.40;;;9.13;;
34200;SDS011;20469;55.638;37.670;2023-05-16T01:31:57;25.05;;;9.35;;
34200;SDS011;20469;55.638;37.670;2023-05-16T01:34:25;23.20;;;9.18;;
34200;SDS011;20469;55.638;37.670;2023-05-16T01:39:46;25.30;;;9.50;;
34200;SDS011;20469;55.638;37.670;2023-05-16T01:42:31;17.98;;;9.13;;
34200;SDS011;20469;55.638;37.670;2023-05-16T01:45:08;22.85;;;9.02;;
34200;SDS011;20469;55.638;37.670;2023-05-16T01:48:15;23.37;;;9.33;;
34200;SDS011;20469;55.638;37.670;2023-05-16T01:50:47;26.88;;;9.25;;
34200;SDS011;20469;55.638;37.670;2023-05-16T01:53:27;23.05;;;9.02;;
34200;SDS011;20469;55.638;37.670;2023-05-16T01:55:59;20.60;;;9.32;;
34200;SDS011;20469;55.638;37.670;2023-05-16T01:58:29;22.98;;;9.45;;
34200;SDS011;20469;55.638;37.670;2023-05-16T02:01:00;20.13;;;9.57;;
34200;SDS011;20469;55.638;37.670;2023-05-16T02:03:32;23.90;;;9.40;;
34200;SDS011;20469;55.638;37.670;2023-05-16T02:06:00;24.45;;;9.25;;
34200;SDS011;20469;55.638;37.670;2023-05-16T02:08:27;18.42;;;8.30;;
34200;SDS011;20469;55.638;37.670;2023-05-16T02:10:55;21.65;;;8.82;;
34200;SDS011;20469;55.638;37.670;2023-05-16T02:13:23;20.95;;;8.80;;
34200;SDS011;20469;55.638;37.670;2023-05-16T02:15:50;24.30;;;8.98;;
34200;SDS011;20469;55.638;37.670;2023-05-16T02:18:18;24.90;;;9.13;;
34200;SDS011;20469;55.638;37.670;2023-05-16T02:20:46;24.98;;;9.38;;
34200;SDS011;20469;55.638;37.670;2023-05-16T02:23:13;19.73;;;9.48;;
34200;SDS011;20469;55.638;37.670;2023-05-16T02:25:40;20.92;;;9.15;;
34200;SDS011;20469;55.638;37.670;2023-05-16T02:28:08;23.05;;;9.77;;
34200;SDS011;20469;55.638;37.670;2023-05-16T02:30:35;25.15;;;9.45;;
34200;SDS011;20469;55.638;37.670;2023-05-16T02:33:02;24.85;;;9.23;;
34200;SDS011;20469;55.638;37.670;2023-05-16T02:35:30;23.10;;;9.68;;
34200;SDS011;20469;55.638;37.670;2023-05-16T02:37:57;19.70;;;9.18;;
34200;SDS011;20469;55.638;37.670;2023-05-16T02:40:24;19.67;;;8.68;;
34200;SDS011;20469;55.638;37.670;2023-05-16T02:42:51;19.23;;;9.13;;
34200;SDS011;20469;55.638;37.670;2023-05-16T02:45:20;22.02;;;9.70;;
34200;SDS011;20469;55.638;37.670;2023-05-16T02:47:47;21.30;;;9.60;;
34200;SDS011;20469;55.638;37.670;2023-05-16T02:50:14;19.92;;;8.77;;
34200;SDS011;20469;55.638;37.670;2023-05-16T02:52:41;18.20;;;9.13;;
34200;SDS011;20469;55.638;37.670;2023-05-16T02:55:09;23.15;;;8.00;;
34200;SDS011;20469;55.638;37.670;2023-05-16T02:57:41;15.05;;;6.80;;
34200;SDS011;20469;55.638;37.670;2023-05-16T03:00:08;14.80;;;6.90;;
34200;SDS011;20469;55.638;37.670;2023-05-16T03:02:37;16.38;;;7.28;;
34200;SDS011;20469;55.638;37.670;2023-05-16T03:05:04;16.02;;;7.35;;
34200;SDS011;20469;55.638;37.670;2023-05-16T03:07:32;17.73;;;7.65;;
34200;SDS011;20469;55.638;37.670;2023-05-16T03:09:59;19.08;;;7.47;;
34200;SDS011;20469;55.638;37.670;2023-05-16T03:12:28;19.92;;;7.07;;
34200;SDS011;20469;55.638;37.670;2023-05-16T03:14:56;15.38;;;6.57;;
34200;SDS011;20469;55.638;37.670;2023-05-16T03:17:23;15.30;;;6.78;;
34200;SDS011;20469;55.638;37.670;2023-05-16T03:19:50;13.85;;;6.47;;
34200;SDS011;20469;55.638;37.670;2023-05-16T03:22:18;15.23;;;6.22;;
34200;SDS011;20469;55.638;37.670;2023-05-16T03:24:45;12.23;;;5.72;;
34200;SDS011;20469;55.638;37.670;2023-05-16T03:27:12;17.77;;;6.03;;
34200;SDS011;20469;55.638;37.670;2023-05-16T03:29:40;13.88;;;6.20;;
34200;SDS011;20469;55.638;37.670;2023-05-16T03:32:07;13.35;;;5.82;;
34200;SDS011;20469;55.638;37.670;2023-05-16T03:34:36;10.93;;;5.40;;
34200;SDS011;20469;55.638;37.670;2023-05-16T03:37:03;12.65;;;5.45;;
34200;SDS011;20469;55.638;37.670;2023-05-16T03:39:31;12.63;;;5.75;;
34200;SDS011;20469;55.638;37.670;2023-05-16T03:41:58;14.93;;;5.70;;
34200;SDS011;20469;55.638;37.670;2023-05-16T03:44:25;11.52;;;5.45;;
34200;SDS011;20469;55.638;37.670;2023-05-16T03:46:53;14.63;;;5.65;;
34200;SDS011;20469;55.638;37.670;2023-05-16T03:49:23;14.25;;;5.32;;
34200;SDS011;20469;55.638;37.670;2023-05-16T03:52:09;9.07;;;4.75;;
34200;SDS011;20469;55.638;37.670;2023-05-16T03:57:22;13.75;;;4.45;;
34200;SDS011;20469;55.638;37.670;2023-05-16T03:59:50;12.55;;;4.60;;
34200;SDS011;20469;55.638;37.670;2023-05-16T04:02:17;12.32;;;4.95;;
34200;SDS011;20469;55.638;37.670;2023-05-16T04:04:45;16.45;;;4.50;;
34200;SDS011;20469;55.638;37.670;2023-05-16T04:07:13;10.18;;;4.32;;
34200;SDS011;20469;55.638;37.670;2023-05-16T04:09:40;9.93;;;3.95;;
34200;SDS011;20469;55.638;37.670;2023-05-16T04:12:28;10.52;;;4.47;;
34200;SDS011;20469;55.638;37.670;2023-05-16T04:14:56;14.23;;;5.57;;
34200;SDS011;20469;55.638;37.670;2023-05-16T04:17:23;13.55;;;5.75;;
34200;SDS011;20469;55.638;37.670;2023-05-16T04:19:51;16.20;;;6.15;;
34200;SDS011;20469;55.638;37.670;2023-05-16T04:22:21;13.90;;;5.60;;
34200;SDS011;20469;55.638;37.670;2023-05-16T04:24:48;13.15;;;5.57;;
34200;SDS011;20469;55.638;37.670;2023-05-16T04:27:15;14.10;;;6.53;;
34200;SDS011;20469;55.638;37.670;2023-05-16T04:29:43;15.55;;;5.93;;
34200;SDS011;20469;55.638;37.670;2023-05-16T04:32:10;12.05;;;5.72;;
34200;SDS011;20469;55.638;37.670;2023-05-16T04:34:37;15.95;;;6.07;;
34200;SDS011;20469;55.638;37.670;2023-05-16T04:37:06;21.50;;;6.05;;
34200;SDS011;20469;55.638;37.670;2023-05-16T04:39:34;14.98;;;5.00;;
34200;SDS011;20469;55.638;37.670;2023-05-16T04:42:20;11.68;;;4.60;;
34200;SDS011;20469;55.638;37.670;2023-05-16T04:44:47;8.82;;;3.53;;
34200;SDS011;20469;55.638;37.670;2023-05-16T04:47:15;9.20;;;3.40;;
34200;SDS011;20469;55.638;37.670;2023-05-16T04:49:43;14.45;;;4.72;;
34200;SDS011;20469;55.638;37.670;2023-05-16T04:52:10;10.43;;;4.25;;
34200;SDS011;20469;55.638;37.670;2023-05-16T04:54:37;7.80;;;3.90;;
34200;SDS011;20469;55.638;37.670;2023-05-16T04:57:05;8.98;;;4.65;;
34200;SDS011;20469;55.638;37.670;2023-05-16T04:59:51;12.63;;;4.00;;
34200;SDS011;20469;55.638;37.670;2023-05-16T05:02:18;9.10;;;3.75;;
34200;SDS011;20469;55.638;37.670;2023-05-16T05:04:46;7.68;;;3.25;;
34200;SDS011;20469;55.638;37.670;2023-05-16T05:07:13;7.30;;;3.58;;
34200;SDS011;20469;55.638;37.670;2023-05-16T05:09:40;7.03;;;3.47;;
34200;SDS011;20469;55.638;37.670;2023-05-16T05:12:08;13.48;;;3.50;;
34200;SDS011;20469;55.638;37.670;2023-05-16T05:14:37;10.15;;;3.22;;
34200;SDS011;20469;55.638;37.670;2023-05-16T05:17:04;6.97;;;2.55;;
34200;SDS011;20469;55.638;37.670;2023-05-16T05:19:32;8.60;;;2.80;;
34200;SDS011;20469;55.638;37.670;2023-05-16T05:21:59;8.52;;;2.70;;
34200;SDS011;20469;55.638;37.670;2023-05-16T05:24:26;3.28;;;2.70;;
34200;SDS011;20469;55.638;37.670;2023-05-16T05:26:53;24.05;;;2.83;;
34200;SDS011;20469;55.638;37.670;2023-05-16T05:29:21;7.68;;;2.67;;
34200;SDS011;20469;55.638;37.670;2023-05-16T05:31:48;5.25;;;2.30;;
34200;SDS011;20469;55.638;37.670;2023-05-16T05:34:15;4.90;;;2.20;;
34200;SDS011;20469;55.638;37.670;2023-05-16T05:36:43;3.92;;;2.38;;
34200;SDS011;20469;55.638;37.670;2023-05-16T05:39:10;4.90;;;1.98;;
34200;SDS011;20469;55.638;37.670;2023-05-16T05:41:37;4.30;;;1.92;;
34200;SDS011;20469;55.638;37.670;2023-05-16T05:44:05;7.07;;;2.08;;
34200;SDS011;20469;55.638;37.670;2023-05-16T05:46:32;3.78;;;1.92;;
34200;SDS011;20469;55.638;37.670;2023-05-16T05:49:00;5.00;;;2.15;;
34200;SDS011;20469;55.638;37.670;2023-05-16T05:51:27;3.78;;;1.65;;
34200;SDS011;20469;55.638;37.670;2023-05-16T05:53:54;6.72;;;2.10;;
34200;SDS011;20469;55.638;37.670;2023-05-16T05:56:22;2.70;;;1.67;;
34200;SDS011;20469;55.638;37.670;2023-05-16T05:58:50;6.50;;;1.80;;
34200;SDS011;20469;55.638;37.670;2023-05-16T06:01:17;5.40;;;1.75;;
34200;SDS011;20469;55.638;37.670;2023-05-16T06:03:50;3.13;;;1.50;;
34200;SDS011;20469;55.638;37.670;2023-05-16T06:06:17;2.70;;;1.85;;
34200;SDS011;20469;55.638;37.670;2023-05-16T06:08:44;8.10;;;1.67;;
34200;SDS011;20469;55.638;37.670;2023-05-16T06:11:12;4.32;;;1.58;;
34200;SDS011;20469;55.638;37.670;2023-05-16T06:13:39;4.40;;;2.47;;
34200;SDS011;20469;55.638;37.670;2023-05-16T06:16:06;5.30;;;1.63;;
34200;SDS011;20469;55.638;37.670;2023-05-16T06:18:35;5.97;;;1.67;;
34200;SDS011;20469;55.638;37.670;2023-05-16T06:21:02;3.67;;;1.65;;
34200;SDS011;20469;55.638;37.670;2023-05-16T06:23:32;5.45;;;1.95;;
34200;SDS011;20469;55.638;37.670;2023-05-16T06:25:59;8.25;;;2.30;;
34200;SDS011;20469;55.638;37.670;2023-05-16T06:28:27;6.60;;;1.67;;
34200;SDS011;20469;55.638;37.670;2023-05-16T06:30:54;8.18;;;2.08;;
34200;SDS011;20469;55.638;37.670;2023-05-16T06:33:23;4.97;;;1.25;;
34200;SDS011;20469;55.638;37.670;2023-05-16T06:35:50;3.45;;;1.50;;
34200;SDS011;20469;55.638;37.670;2023-05-16T06:38:18;4.22;;;1.38;;
34200;SDS011;20469;55.638;37.670;2023-05-16T06:40:45;12.40;;;2.22;;
34200;SDS011;20469;55.638;37.670;2023-05-16T06:43:12;5.93;;;1.30;;
34200;SDS011;20469;55.638;37.670;2023-05-16T06:45:39;4.72;;;1.65;;
34200;SDS011;20469;55.638;37.670;2023-05-16T06:48:07;8.20;;;1.30;;
34200;SDS011;20469;55.638;37.670;2023-05-16T06:50:34;5.00;;;1.50;;
34200;SDS011;20469;55.638;37.670;2023-05-16T06:53:02;6.68;;;1.48;;
34200;SDS011;20469;55.638;37.670;2023-05-16T06:55:30;2.78;;;1.38;;
34200;SDS011;20469;55.638;37.670;2023-05-16T06:57:57;24.48;;;2.67;;
34200;SDS011;20469;55.638;37.670;2023-05-16T07:00:25;1.60;;;1.30;;
34200;SDS011;20469;55.638;37.670;2023-05-16T07:02:52;4.53;;;1.35;;
34200;SDS011;20469;55.638;37.670;2023-05-16T07:05:20;2.53;;;1.50;;
34200;SDS011;20469;55.638;37.670;2023-05-16T07:07:47;1.73;;;1.20;;
34200;SDS011;20469;55.638;37.670;2023-05-16T07:10:15;2.15;;;1.50;;
34200;SDS011;20469;55.638;37.670;2023-05-16T07:12:42;4.82;;;1.20;;
34200;SDS011;20469;55.638;37.670;2023-05-16T07:15:09;3.35;;;1.30;;
34200;SDS011;20469;55.638;37.670;2023-05-16T07:17:36;5.90;;;1.30;;
34200;SDS011;20469;55.638;37.670;2023-05-16T07:20:06;4.57;;;1.58;;
34200;SDS011;20469;55.638;37.670;2023-05-16T07:22:37;1.65;;;1.25;;
34200;SDS011;20469;55.638;37.670;2023-05-16T07:25:04;2.97;;;1.60;;
34200;SDS011;20469;55.638;37.670;2023-05-16T07:27:38;10.10;;;1.60;;
34200;SDS011;20469;55.638;37.670;2023-05-16T07:30:11;3.75;;;1.65;;
34200;SDS011;20469;55.638;37.670;2023-05-16T07:32:39;19.92;;;2.00;;
34200;SDS011;20469;55.638;37.670;2023-05-16T07:35:07;6.32;;;1.40;;
34200;SDS011;20469;55.638;37.670;2023-05-16T07:37:35;2.45;;;1.20;;
34200;SDS011;20469;55.638;37.670;2023-05-16T07:40:02;2.88;;;1.10;;
34200;SDS011;20469;55.638;37.670;2023-05-16T07:42:31;4.10;;;1.55;;
34200;SDS011;20469;55.638;37.670;2023-05-16T07:44:58;2.63;;;1.30;;
34200;SDS011;20469;55.638;37.670;2023-05-16T07:47:31;2.95;;;1.08;;
34200;SDS011;20469;55.638;37.670;2023-05-16T07:49:58;4.30;;;1.45;;
34200;SDS011;20469;55.638;37.670;2023-05-16T07:52:26;4.82;;;1.17;;
34200;SDS011;20469;55.638;37.670;2023-05-16T07:54:53;6.68;;;1.23;;
34200;SDS011;20469;55.638;37.670;2023-05-16T07:57:20;4.03;;;1.50;;
34200;SDS011;20469;55.638;37.670;2023-05-16T07:59:50;3.88;;;1.45;;
34200;SDS011;20469;55.638;37.670;2023-05-16T08:02:18;5.88;;;1.50;;
34200;SDS011;20469;55.638;37.670;2023-05-16T08:04:46;1.83;;;1.30;;
34200;SDS011;20469;55.638;37.670;2023-05-16T08:07:15;4.80;;;1.73;;
34200;SDS011;20469;55.638;37.670;2023-05-16T08:09:42;4.85;;;1.30;;
34200;SDS011;20469;55.638;37.670;2023-05-16T08:12:10;1.80;;;1.27;;
34200;SDS011;20469;55.638;37.670;2023-05-16T08:14:37;5.80;;;1.50;;
34200;SDS011;20469;55.638;37.670;2023-05-16T08:17:04;5.57;;;1.40;;
34200;SDS011;20469;55.638;37.670;2023-05-16T08:19:32;4.28;;;1.17;;
34200;SDS011;20469;55.638;37.670;2023-05-16T08:22:00;2.70;;;1.10;;
34200;SDS011;20469;55.638;37.670;2023-05-16T08:24:28;2.97;;;1.40;;
34200;SDS011;20469;55.638;37.670;2023-05-16T08:26:55;6.38;;;1.48;;
34200;SDS011;20469;55.638;37.670;2023-05-16T08:29:22;3.92;;;1.15;;
34200;SDS011;20469;55.638;37.670;2023-05-16T08:31:50;6.03;;;1.20;;
34200;SDS011;20469;55.638;37.670;2023-05-16T08:34:17;3.30;;;1.10;;
34200;SDS011;20469;55.638;37.670;2023-05-16T08:36:44;2.20;;;1.27;;
34200;SDS011;20469;55.638;37.670;2023-05-16T08:39:12;5.72;;;1.10;;
34200;SDS011;20469;55.638;37.670;2023-05-16T08:41:39;2.95;;;1.10;;
34200;SDS011;20469;55.638;37.670;2023-05-16T08:44:06;3.97;;;1.20;;
34200;SDS011;20469;55.638;37.670;2023-05-16T08:46:35;1.90;;;1.00;;
34200;SDS011;20469;55.638;37.670;2023-05-16T08:49:04;5.30;;;1.58;;
34200;SDS011;20469;55.638;37.670;2023-05-16T08:51:34;5.07;;;1.30;;
34200;SDS011;20469;55.638;37.670;2023-05-16T08:54:05;1.75;;;1.00;;
34200;SDS011;20469;55.638;37.670;2023-05-16T08:59:03;6.75;;;1.30;;
34200;SDS011;20469;55.638;37.670;2023-05-16T09:01:31;4.63;;;1.10;;
34200;SDS011;20469;55.638;37.670;2023-05-16T09:03:59;5.65;;;1.20;;
34200;SDS011;20469;55.638;37.670;2023-05-16T09:06:26;2.90;;;1.17;;
34200;SDS011;20469;55.638;37.670;2023-05-16T09:08:54;6.25;;;1.50;;
34200;SDS011;20469;55.638;37.670;2023-05-16T09:11:21;7.63;;;1.45;;
34200;SDS011;20469;55.638;37.670;2023-05-16T09:13:49;3.50;;;1.02;;
34200;SDS011;20469;55.638;37.670;2023-05-16T09:16:17;2.17;;;0.90;;
34200;SDS011;20469;55.638;37.670;2023-05-16T09:18:46;3.17;;;1.10;;
34200;SDS011;20469;55.638;37.670;2023-05-16T09:21:21;8.02;;;1.40;;
34200;SDS011;20469;55.638;37.670;2023-05-16T09:23:49;2.08;;;1.00;;
34200;SDS011;20469;55.638;37.670;2023-05-16T09:26:17;6.28;;;2.40;;
34200;SDS011;20469;55.638;37.670;2023-05-16T09:28:45;8.35;;;2.50;;
34200;SDS011;20469;55.638;37.670;2023-05-16T09:31:19;3.13;;;1.45;;
34200;SDS011;20469;55.638;37.670;2023-05-16T09:33:48;2.17;;;1.63;;
34200;SDS011;20469;55.638;37.670;2023-05-16T09:36:34;2.00;;;1.00;;
34200;SDS011;20469;55.638;37.670;2023-05-16T09:39:02;2.88;;;1.20;;
34200;SDS011;20469;55.638;37.670;2023-05-16T09:41:33;2.75;;;1.20;;
34200;SDS011;20469;55.638;37.670;2023-05-16T09:44:04;1.92;;;1.05;;
34200;SDS011;20469;55.638;37.670;2023-05-16T09:46:33;3.55;;;1.38;;
34200;SDS011;20469;55.638;37.670;2023-05-16T09:49:01;4.32;;;0.93;;
34200;SDS011;20469;55.638;37.670;2023-05-16T09:51:28;3.67;;;1.30;;
34200;SDS011;20469;55.638;37.670;2023-05-16T09:53:59;3.55;;;1.33;;
34200;SDS011;20469;55.638;37.670;2023-05-16T09:56:27;4.95;;;1.40;;
34200;SDS011;20469;55.638;37.670;2023-05-16T09:58:55;4.07;;;1.08;;
34200;SDS011;20469;55.638;37.670;2023-05-16T10:01:41;4.82;;;1.23;;
34200;SDS011;20469;55.638;37.670;2023-05-16T10:04:09;6.57;;;1.52;;
34200;SDS011;20469;55.638;37.670;2023-05-16T10:06:39;4.28;;;1.00;;
34200;SDS011;20469;55.638;37.670;2023-05-16T10:09:11;4.35;;;1.10;;
34200;SDS011;20469;55.638;37.670;2023-05-16T10:11:57;11.68;;;1.27;;
34200;SDS011;20469;55.638;37.670;2023-05-16T10:14:29;7.75;;;1.30;;
34200;SDS011;20469;55.638;37.670;2023-05-16T10:17:00;8.55;;;1.30;;
34200;SDS011;20469;55.638;37.670;2023-05-16T10:19:36;3.92;;;1.00;;
34200;SDS011;20469;55.638;37.670;2023-05-16T10:22:05;3.05;;;1.10;;
34200;SDS011;20469;55.638;37.670;2023-05-16T10:24:38;4.28;;;1.10;;
34200;SDS011;20469;55.638;37.670;2023-05-16T10:27:14;2.10;;;0.85;;
34200;SDS011;20469;55.638;37.670;2023-05-16T10:30:18;7.57;;;1.40;;
34200;SDS011;20469;55.638;37.670;2023-05-16T10:32:46;3.28;;;1.25;;
34200;SDS011;20469;55.638;37.670;2023-05-16T10:35:15;1.95;;;1.10;;
34200;SDS011;20469;55.638;37.670;2023-05-16T10:37:43;2.42;;;1.02;;
34200;SDS011;20469;55.638;37.670;2023-05-16T10:40:33;7.80;;;1.60;;
34200;SDS011;20469;55.638;37.670;2023-05-16T10:43:02;7.93;;;1.15;;
34200;SDS011;20469;55.638;37.670;2023-05-16T10:45:31;2.58;;;1.05;;
34200;SDS011;20469;55.638;37.670;2023-05-16T10:48:17;5.28;;;1.85;;
34200;SDS011;20469;55.638;37.670;2023-05-16T10:54:32;1.10;;;0.88;;
34200;SDS011;20469;55.638;37.670;2023-05-16T10:57:30;3.47;;;0.90;;
34200;SDS011;20469;55.638;37.670;2023-05-16T10:59:59;7.78;;;1.75;;
34200;SDS011;20469;55.638;37.670;2023-05-16T11:02:32;3.88;;;1.10;;
34200;SDS011;20469;55.638;37.670;2023-05-16T11:05:08;3.42;;;0.90;;
34200;SDS011;20469;55.638;37.670;2023-05-16T11:07:43;5.30;;;1.20;;
34200;SDS011;20469;55.638;37.670;2023-05-16T11:10:27;4.60;;;1.10;;
34200;SDS011;20469;55.638;37.670;2023-05-16T11:12:54;6.15;;;1.30;;
34200;SDS011;20469;55.638;37.670;2023-05-16T11:15:32;2.55;;;1.10;;
34200;SDS011;20469;55.638;37.670;2023-05-16T11:20:32;6.00;;;1.00;;
34200;SDS011;20469;55.638;37.670;2023-05-16T11:25:56;3.47;;;1.20;;
34200;SDS011;20469;55.638;37.670;2023-05-16T11:28:24;2.40;;;1.10;;
34200;SDS011;20469;55.638;37.670;2023-05-16T11:31:11;3.25;;;1.17;;
34200;SDS011;20469;55.638;37.670;2023-05-16T11:33:38;6.70;;;1.05;;
34200;SDS011;20469;55.638;37.670;2023-05-16T11:36:06;3.58;;;1.20;;
34200;SDS011;20469;55.638;37.670;2023-05-16T11:38:38;6.50;;;1.10;;
34200;SDS011;20469;55.638;37.670;2023-05-16T11:41:09;2.13;;;1.00;;
34200;SDS011;20469;55.638;37.670;2023-05-16T11:43:41;4.28;;;0.90;;
34200;SDS011;20469;55.638;37.670;2023-05-16T11:46:11;4.43;;;1.23;;
34200;SDS011;20469;55.638;37.670;2023-05-16T11:48:39;4.90;;;1.58;;
34200;SDS011;20469;55.638;37.670;2023-05-16T11:51:08;7.97;;;1.90;;
34200;SDS011;20469;55.638;37.670;2023-05-16T11:53:54;2.80;;;1.00;;
34200;SDS011;20469;55.638;37.670;2023-05-16T11:56:21;12.68;;;1.77;;
34200;SDS011;20469;55.638;37.670;2023-05-16T11:58:49;3.42;;;1.30;;
34200;SDS011;20469;55.638;37.670;2023-05-16T12:01:16;5.20;;;1.40;;
34200;SDS011;20469;55.638;37.670;2023-05-16T12:03:44;1.60;;;0.90;;
34200;SDS011;20469;55.638;37.670;2023-05-16T12:06:19;1.90;;;1.02;;
34200;SDS011;20469;55.638;37.670;2023-05-16T12:09:05;4.88;;;0.98;;
34200;SDS011;20469;55.638;37.670;2023-05-16T12:11:37;1.23;;;0.98;;
34200;SDS011;20469;55.638;37.670;2023-05-16T12:14:05;2.33;;;0.90;;
34200;SDS011;20469;55.638;37.670;2023-05-16T12:16:34;33.70;;;3.38;;
34200;SDS011;20469;55.638;37.670;2023-05-16T12:19:06;10.07;;;1.55;;
34200;SDS011;20469;55.638;37.670;2023-05-16T12:24:21;3.15;;;0.90;;
34200;SDS011;20469;55.638;37.670;2023-05-16T12:26:56;5.15;;;1.00;;
34200;SDS011;20469;55.638;37.670;2023-05-16T12:29:24;4.00;;;1.02;;
34200;SDS011;20469;55.638;37.670;2023-05-16T12:31:52;9.32;;;1.52;;
34200;SDS011;20469;55.638;37.670;2023-05-16T12:34:19;3.83;;;1.00;;
34200;SDS011;20469;55.638;37.670;2023-05-16T12:36:51;4.70;;;1.20;;
34200;SDS011;20469;55.638;37.670;2023-05-16T12:39:19;3.45;;;0.90;;
34200;SDS011;20469;55.638;37.670;2023-05-16T12:41:46;2.95;;;0.90;;
34200;SDS011;20469;55.638;37.670;2023-05-16T12:44:17;5.47;;;1.20;;
34200;SDS011;20469;55.638;37.670;2023-05-16T12:46:46;5.78;;;1.23;;
34200;SDS011;20469;55.638;37.670;2023-05-16T12:49:22;4.07;;;1.20;;
34200;SDS011;20469;55.638;37.670;2023-05-16T12:51:50;3.03;;;0.85;;
34200;SDS011;20469;55.638;37.670;2023-05-16T12:54:18;3.65;;;1.10;;
34200;SDS011;20469;55.638;37.670;2023-05-16T12:56:46;1.35;;;0.90;;
34200;SDS011;20469;55.638;37.670;2023-05-16T12:59:13;4.00;;;1.30;;
34200;SDS011;20469;55.638;37.670;2023-05-16T13:01:40;3.60;;;0.90;;
34200;SDS011;20469;55.638;37.670;2023-05-16T13:04:08;4.75;;;1.08;;
34200;SDS011;20469;55.638;37.670;2023-05-16T13:06:40;4.60;;;1.20;;
34200;SDS011;20469;55.638;37.670;2023-05-16T13:09:23;3.58;;;1.20;;
34200;SDS011;20469;55.638;37.670;2023-05-16T13:14:23;1.77;;;1.40;;
34200;SDS011;20469;55.638;37.670;2023-05-16T13:16:50;2.97;;;1.15;;
34200;SDS011;20469;55.638;37.670;2023-05-16T13:19:18;11.27;;;1.30;;
34200;SDS011;20469;55.638;37.670;2023-05-16T13:21:45;2.55;;;0.90;;
34200;SDS011;20469;55.638;37.670;2023-05-16T13:24:12;2.38;;;1.20;;
34200;SDS011;20469;55.638;37.670;2023-05-16T13:26:39;6.68;;;1.50;;
34200;SDS011;20469;55.638;37.670;2023-05-16T13:29:06;2.88;;;1.38;;
34200;SDS011;20469;55.638;37.670;2023-05-16T13:31:36;2.83;;;1.10;;
34200;SDS011;20469;55.638;37.670;2023-05-16T13:34:03;3.35;;;1.10;;
34200;SDS011;20469;55.638;37.670;2023-05-16T13:36:31;16.40;;;2.13;;
34200;SDS011;20469;55.638;37.670;2023-05-16T13:39:18;3.45;;;1.08;;
34200;SDS011;20469;55.638;37.670;2023-05-16T13:41:46;2.33;;;1.10;;
34200;SDS011;20469;55.638;37.670;2023-05-16T13:44:15;3.75;;;1.20;;
34200;SDS011;20469;55.638;37.670;2023-05-16T13:46:42;6.85;;;1.30;;
34200;SDS011;20469;55.638;37.670;2023-05-16T13:49:10;7.82;;;1.25;;
34200;SDS011;20469;55.638;37.670;2023-05-16T13:51:37;2.67;;;0.90;;
34200;SDS011;20469;55.638;37.670;2023-05-16T13:54:05;3.15;;;1.20;;
34200;SDS011;20469;55.638;37.670;2023-05-16T13:56:32;3.58;;;1.63;;
34200;SDS011;20469;55.638;37.670;2023-05-16T13:59:00;1.35;;;0.85;;
34200;SDS011;20469;55.638;37.670;2023-05-16T14:01:32;3.10;;;1.30;;
34200;SDS011;20469;55.638;37.670;2023-05-16T14:04:00;1.85;;;0.90;;
34200;SDS011;20469;55.638;37.670;2023-05-16T14:06:28;8.45;;;1.65;;
34200;SDS011;20469;55.638;37.670;2023-05-16T14:08:55;1.98;;;1.20;;
34200;SDS011;20469;55.638;37.670;2023-05-16T14:11:22;4.57;;;1.30;;
34200;SDS011;20469;55.638;37.670;2023-05-16T14:13:55;5.22;;;1.10;;
34200;SDS011;20469;55.638;37.670;2023-05-16T14:16:23;9.30;;;1.38;;
34200;SDS011;20469;55.638;37.670;2023-05-16T14:18:53;5.82;;;1.27;;
34200;SDS011;20469;55.638;37.670;2023-05-16T14:21:21;2.80;;;1.05;;
34200;SDS011;20469;55.638;37.670;2023-05-16T14:23:48;1.65;;;1.17;;
34200;SDS011;20469;55.638;37.670;2023-05-16T14:26:15;4.50;;;1.40;;
34200;SDS011;20469;55.638;37.670;2023-05-16T14:28:43;6.40;;;1.73;;
34200;SDS011;20469;55.638;37.670;2023-05-16T14:31:10;4.30;;;1.20;;
34200;SDS011;20469;55.638;37.670;2023-05-16T14:33:38;3.88;;;1.77;;
34200;SDS011;20469;55.638;37.670;2023-05-16T14:36:06;11.43;;;1.92;;
34200;SDS011;20469;55.638;37.670;2023-05-16T14:38:34;4.53;;;1.40;;
34200;SDS011;20469;55.638;37.670;2023-05-16T14:41:01;7.68;;;1.20;;
34200;SDS011;20469;55.638;37.670;2023-05-16T14:43:29;18.38;;;2.22;;
34200;SDS011;20469;55.638;37.670;2023-05-16T14:45:56;6.68;;;1.30;;
34200;SDS011;20469;55.638;37.670;2023-05-16T14:48:24;2.30;;;1.30;;
34200;SDS011;20469;55.638;37.670;2023-05-16T14:50:51;1.80;;;1.30;;
34200;SDS011;20469;55.638;37.670;2023-05-16T14:53:18;1.77;;;1.10;;
34200;SDS011;20469;55.638;37.670;2023-05-16T14:55:47;4.22;;;1.58;;
34200;SDS011;20469;55.638;37.670;2023-05-16T14:58:15;1.67;;;1.40;;
34200;SDS011;20469;55.638;37.670;2023-05-16T15:00:42;3.53;;;1.30;;
34200;SDS011;20469;55.638;37.670;2023-05-16T15:03:10;4.88;;;1.30;;
34200;SDS011;20469;55.638;37.670;2023-05-16T15:05:41;1.95;;;1.40;;
34200;SDS011;20469;55.638;37.670;2023-05-16T15:08:08;6.30;;;1.25;;
34200;SDS011;20469;55.638;37.670;2023-05-16T15:10:35;3.35;;;1.67;;